createdAt,value
2022-08-10T00:01:55.170Z,1.90
2022-08-10T00:04:24.595Z,1.93
2022-08-10T00:06:54.669Z,1.90
2022-08-10T00:09:24.160Z,1.80
2022-08-10T00:11:53.992Z,1.67
2022-08-10T00:14:22.457Z,1.70
2022-08-10T00:16:53.752Z,1.70
2022-08-10T00:19:23.483Z,1.60
2022-08-10T00:21:51.964Z,1.80
2022-08-10T00:24:20.543Z,1.97
2022-08-10T00:27:52.172Z,1.70
2022-08-10T00:29:40.358Z,1.70
2022-08-10T00:32:09.042Z,1.90
2022-08-10T00:34:37.502Z,1.87
2022-08-10T00:37:06.251Z,2.07
2022-08-10T00:39:36.430Z,1.93
2022-08-10T00:42:11.366Z,1.83
2022-08-10T00:44:43.580Z,1.73
2022-08-10T00:47:20.712Z,1.90
2022-08-10T00:50:02.033Z,2.07
2022-08-10T00:52:32.219Z,1.90
2022-08-10T00:55:03.004Z,1.77
2022-08-10T00:57:32.271Z,1.80
2022-08-10T01:00:02.116Z,1.97
2022-08-10T01:02:33.193Z,1.73
2022-08-10T01:05:04.414Z,2.17
2022-08-10T01:07:49.382Z,1.80
2022-08-10T01:10:29.644Z,1.80
2022-08-10T01:13:05.514Z,1.93
2022-08-10T01:15:44.535Z,2.20
2022-08-10T01:18:19.252Z,1.93
2022-08-10T01:21:08.024Z,1.90
2022-08-10T01:24:12.571Z,1.90
2022-08-10T01:27:07.987Z,1.93
2022-08-10T01:29:55.375Z,1.90
2022-08-10T01:32:33.091Z,1.80
2022-08-10T01:35:11.640Z,1.70
2022-08-10T01:37:52.066Z,2.00
2022-08-10T01:40:25.946Z,1.70
2022-08-10T01:42:59.692Z,1.97
2022-08-10T01:45:44.467Z,1.93
2022-08-10T01:48:28.756Z,2.00
2022-08-10T01:51:04.388Z,2.27
2022-08-10T01:53:40.334Z,1.90
2022-08-10T01:56:12.686Z,1.80
2022-08-10T01:58:41.807Z,1.80
2022-08-10T02:01:17.136Z,2.17
2022-08-10T02:04:05.202Z,1.87
2022-08-10T02:06:38.010Z,2.23
2022-08-10T02:09:09.323Z,2.07
2022-08-10T02:12:05.786Z,2.03
2022-08-10T02:14:33.081Z,2.10
2022-08-10T02:17:07.682Z,2.20
2022-08-10T02:19:40.545Z,1.90
2022-08-10T02:22:35.847Z,2.00
2022-08-10T02:25:01.358Z,2.00
2022-08-10T02:27:31.178Z,2.00
2022-08-10T02:30:00.358Z,2.00
2022-08-10T02:32:37.826Z,2.03
2022-08-10T02:35:17.786Z,2.17
2022-08-10T02:37:52.724Z,1.90
2022-08-10T02:45:14.106Z,1.70
2022-08-10T02:45:21.964Z,2.47
2022-08-10T02:46:18.270Z,2.07
2022-08-10T02:52:08.972Z,2.00
2022-08-10T02:54:50.109Z,2.00
2022-08-10T02:57:24.098Z,2.27
2022-08-10T02:59:56.947Z,1.83
2022-08-10T03:02:31.174Z,1.83
2022-08-10T03:05:06.245Z,1.93
2022-08-10T03:07:45.260Z,1.93
2022-08-10T03:10:17.724Z,2.20
2022-08-10T03:12:50.608Z,1.87
2022-08-10T03:15:21.751Z,1.93
2022-08-10T03:17:57.755Z,2.10
2022-08-10T03:20:38.722Z,2.00
2022-08-10T03:23:14.197Z,2.00
2022-08-10T03:25:53.139Z,1.90
2022-08-10T03:28:24.743Z,1.83
2022-08-10T03:30:53.955Z,1.93
2022-08-10T03:33:23.404Z,1.83
2022-08-10T03:36:40.061Z,2.10
2022-08-10T03:38:43.704Z,2.40
2022-08-10T03:41:16.146Z,1.97
2022-08-10T03:43:48.107Z,1.80
2022-08-10T03:46:20.222Z,2.07
2022-08-10T03:48:51.430Z,2.20
2022-08-10T03:51:23.169Z,2.10
2022-08-10T03:54:05.458Z,2.20
2022-08-10T03:56:37.790Z,1.97
2022-08-10T03:59:07.470Z,2.00
2022-08-10T04:02:52.006Z,2.10
2022-08-10T04:04:25.961Z,2.00
2022-08-10T04:06:58.301Z,1.90
2022-08-10T04:09:53.680Z,2.00
2022-08-10T04:12:19.901Z,2.20
2022-08-10T04:14:51.573Z,2.07
2022-08-10T04:17:59.474Z,1.97
2022-08-10T04:20:18.281Z,2.00
2022-08-10T04:22:51.146Z,2.13
2022-08-10T04:25:20.652Z,2.10
2022-08-10T04:27:49.749Z,2.10
2022-08-10T04:30:18.413Z,1.77
2022-08-10T04:32:51.389Z,1.87
2022-08-10T04:35:23.942Z,2.13
2022-08-10T04:37:57.204Z,2.10
2022-08-10T04:40:30.305Z,2.00
2022-08-10T04:43:11.334Z,1.80
2022-08-10T04:45:48.865Z,1.87
2022-08-10T04:48:42.813Z,2.00
2022-08-10T04:51:11.240Z,1.90
2022-08-10T04:54:05.722Z,2.00
2022-08-10T04:56:36.340Z,1.90
2022-08-10T04:59:06.545Z,1.80
2022-08-10T05:02:21.623Z,2.03
2022-08-10T05:04:34.039Z,1.97
2022-08-10T05:07:10.902Z,1.93
2022-08-10T05:10:02.436Z,1.70
2022-08-10T05:12:30.273Z,1.70
2022-08-10T05:14:58.982Z,1.77
2022-08-10T05:17:27.767Z,1.60
2022-08-10T05:20:04.321Z,1.60
2022-08-10T05:22:39.659Z,1.60
2022-08-10T05:25:12.337Z,1.70
2022-08-10T05:27:41.417Z,2.10
2022-08-10T05:30:13.507Z,1.50
2022-08-10T05:32:56.361Z,1.90
2022-08-10T05:35:28.864Z,1.90
2022-08-10T05:38:18.108Z,1.70
2022-08-10T05:40:49.204Z,1.83
2022-08-10T05:43:19.641Z,1.87
2022-08-10T05:46:19.849Z,1.60
2022-08-10T05:48:41.801Z,1.73
2022-08-10T05:51:27.557Z,1.60
2022-08-10T05:54:01.009Z,2.17
2022-08-10T05:56:54.937Z,1.67
2022-08-10T06:00:29.412Z,1.70
2022-08-10T06:02:41.307Z,2.20
2022-08-10T06:05:11.617Z,1.73
2022-08-10T06:07:43.895Z,1.83
2022-08-10T06:10:31.487Z,1.90
2022-08-10T06:13:30.798Z,1.70
2022-08-10T06:16:07.575Z,1.50
2022-08-10T06:18:36.866Z,1.47
2022-08-10T06:21:05.606Z,1.50
2022-08-10T06:23:36.021Z,1.57
2022-08-10T06:26:11.182Z,1.90
2022-08-10T06:28:56.027Z,1.60
2022-08-10T06:31:47.834Z,1.70
2022-08-10T06:34:21.875Z,1.50
2022-08-10T06:36:53.039Z,1.57
2022-08-10T06:39:39.543Z,1.80
2022-08-10T06:42:17.544Z,1.60
2022-08-10T06:44:57.953Z,1.73
2022-08-10T06:47:32.528Z,1.50
2022-08-10T06:52:43.554Z,1.47
2022-08-10T06:55:16.903Z,1.50
2022-08-10T06:57:59.370Z,1.43
2022-08-10T07:00:33.839Z,1.60
2022-08-10T07:03:09.285Z,1.50
2022-08-10T07:05:41.825Z,1.53
2022-08-10T07:08:12.245Z,1.77
2022-08-10T07:10:46.129Z,1.87
2022-08-10T07:14:14.398Z,1.70
2022-08-10T07:16:12.286Z,1.60
2022-08-10T07:18:42.576Z,1.70
2022-08-10T07:21:13.537Z,1.83
2022-08-10T07:23:56.869Z,1.50
2022-08-10T07:26:30.129Z,1.40
2022-08-10T07:28:59.855Z,1.60
2022-08-10T07:31:56.398Z,1.87
2022-08-10T07:34:29.851Z,1.53
2022-08-10T07:37:03.967Z,1.30
2022-08-10T07:40:02.261Z,1.40
2022-08-10T07:42:25.509Z,1.50
2022-08-10T07:44:54.239Z,1.50
2022-08-10T07:47:53.680Z,1.60
2022-08-10T07:50:21.307Z,1.60
2022-08-10T07:52:51.158Z,1.73
2022-08-10T07:56:01.830Z,1.70
2022-08-10T07:58:14.991Z,1.50
2022-08-10T08:00:44.937Z,1.50
2022-08-10T08:03:17.487Z,1.50
2022-08-10T08:05:59.031Z,1.47
2022-08-10T08:08:33.784Z,1.30
2022-08-10T08:11:02.890Z,1.30
2022-08-10T08:13:32.198Z,1.43
2022-08-10T08:16:19.247Z,1.70
2022-08-10T08:19:25.535Z,1.47
2022-08-10T08:24:10.166Z,1.37
2022-08-10T08:24:36.792Z,1.47
2022-08-10T08:27:08.405Z,1.30
2022-08-10T08:29:39.011Z,1.30
2022-08-10T08:32:08.430Z,1.50
2022-08-10T08:34:40.446Z,1.33
2022-08-10T08:37:10.793Z,1.50
2022-08-10T08:39:41.240Z,1.33
2022-08-10T08:42:31.887Z,1.30
2022-08-10T08:45:11.987Z,1.30
2022-08-10T08:48:17.263Z,1.50
2022-08-10T08:51:01.591Z,1.30
2022-08-10T08:54:01.218Z,1.33
2022-08-10T08:56:40.573Z,1.37
2022-08-10T08:59:24.080Z,1.20
2022-08-10T09:02:07.750Z,1.23
2022-08-10T09:04:49.839Z,1.30
2022-08-10T09:08:01.558Z,1.50
2022-08-10T09:10:46.715Z,1.50
2022-08-10T09:13:27.260Z,1.20
2022-08-10T09:16:16.866Z,1.23
2022-08-10T09:18:52.561Z,1.10
2022-08-10T09:21:28.010Z,1.33
2022-08-10T09:24:06.963Z,1.10
2022-08-10T09:26:46.917Z,1.30
2022-08-10T09:29:25.858Z,1.40
2022-08-10T09:36:16.604Z,1.20
2022-08-10T09:36:19.622Z,1.37
2022-08-10T09:38:07.520Z,1.10
2022-08-10T09:41:00.608Z,1.30
2022-08-10T09:43:42.106Z,1.27
2022-08-10T09:46:21.793Z,1.30
2022-08-10T09:49:02.290Z,1.20
2022-08-10T09:51:45.746Z,1.63
2022-08-10T09:54:28.354Z,1.80
2022-08-10T09:57:44.946Z,1.27
2022-08-10T10:00:10.572Z,1.50
2022-08-10T10:02:58.684Z,1.47
2022-08-10T10:05:37.563Z,1.20
2022-08-10T10:08:14.731Z,1.20
2022-08-10T10:10:55.390Z,1.37
2022-08-10T10:13:41.571Z,1.23
2022-08-10T10:16:48.481Z,1.33
2022-08-10T10:19:44.527Z,1.43
2022-08-10T10:22:29.624Z,1.20
2022-08-10T10:25:18.238Z,1.13
2022-08-10T10:27:58.868Z,1.30
2022-08-10T10:30:38.130Z,1.20
2022-08-10T10:33:14.854Z,1.27
2022-08-10T10:35:49.861Z,1.40
2022-08-10T10:38:20.041Z,1.30
2022-08-10T10:40:56.966Z,1.20
2022-08-10T10:43:43.654Z,1.20
2022-08-10T10:46:25.912Z,1.33
2022-08-10T10:49:01.884Z,1.20
2022-08-10T10:51:35.373Z,1.17
2022-08-10T10:54:13.179Z,2.70
2022-08-10T10:56:52.489Z,1.27
2022-08-10T10:59:55.931Z,1.30
2022-08-10T11:02:39.230Z,1.30
2022-08-10T11:05:19.103Z,1.10
2022-08-10T11:07:55.623Z,1.30
2022-08-10T11:10:32.926Z,1.17
2022-08-10T11:14:25.832Z,1.20
2022-08-10T11:16:12.938Z,1.20
2022-08-10T11:18:56.979Z,1.00
2022-08-10T11:21:35.743Z,1.20
2022-08-10T11:24:47.146Z,1.00
2022-08-10T11:27:06.928Z,1.10
2022-08-10T11:29:43.881Z,1.40
2022-08-10T11:32:21.628Z,1.20
2022-08-10T11:35:11.828Z,0.90
2022-08-10T11:38:36.951Z,1.30
2022-08-10T11:40:45.651Z,1.13
2022-08-10T11:43:22.086Z,1.27
2022-08-10T11:45:56.447Z,1.10
2022-08-10T11:48:53.007Z,1.37
2022-08-10T11:51:31.225Z,1.40
2022-08-10T11:54:05.327Z,1.13
2022-08-10T11:56:48.210Z,1.10
2022-08-10T11:59:35.905Z,1.30
2022-08-10T12:02:06.449Z,1.20
2022-08-10T12:04:37.108Z,1.17
2022-08-10T12:10:06.238Z,1.10
2022-08-10T12:10:10.644Z,1.30
2022-08-10T12:12:46.996Z,1.10
2022-08-10T12:15:22.750Z,1.37
2022-08-10T12:17:55.967Z,1.03
2022-08-10T12:20:31.110Z,1.13
2022-08-10T12:23:09.218Z,1.20
2022-08-10T12:25:54.904Z,1.10
2022-08-10T12:28:50.046Z,1.00
2022-08-10T12:31:24.584Z,1.03
2022-08-10T12:34:04.757Z,1.10
2022-08-10T12:36:40.241Z,1.07
2022-08-10T12:39:17.166Z,1.23
2022-08-10T12:41:53.402Z,1.30
2022-08-10T12:44:41.401Z,1.00
2022-08-10T12:47:21.432Z,1.30
2022-08-10T12:50:29.939Z,1.20
2022-08-10T12:52:56.588Z,1.20
2022-08-10T12:55:28.592Z,1.20
2022-08-10T12:57:58.686Z,1.20
2022-08-10T13:00:35.350Z,1.10
2022-08-10T13:03:07.326Z,1.00
2022-08-10T13:06:00.272Z,1.40
2022-08-10T13:08:44.326Z,1.20
2022-08-10T13:12:37.015Z,1.20
2022-08-10T13:14:10.408Z,1.00
2022-08-10T13:16:39.671Z,1.20
2022-08-10T13:19:09.083Z,1.33
2022-08-10T13:21:40.041Z,1.30
2022-08-10T13:24:13.123Z,1.20
2022-08-10T13:27:24.393Z,1.37
2022-08-10T13:29:43.646Z,1.30
2022-08-10T13:32:20.594Z,1.20
2022-08-10T13:34:51.592Z,1.20
2022-08-10T13:37:24.300Z,1.30
2022-08-10T13:39:58.971Z,1.60
2022-08-10T13:42:35.117Z,1.40
2022-08-10T13:45:09.744Z,1.37
2022-08-10T13:47:49.411Z,1.20
2022-08-10T13:50:33.156Z,1.47
2022-08-10T13:53:22.092Z,1.57
2022-08-10T13:55:56.100Z,1.40
2022-08-10T13:58:30.501Z,1.20
2022-08-10T14:01:00.725Z,1.43
2022-08-10T14:03:35.711Z,1.70
2022-08-10T14:06:06.952Z,1.40
2022-08-10T14:08:36.950Z,1.77
2022-08-10T14:11:12.586Z,1.63
2022-08-10T14:13:48.586Z,1.57
2022-08-10T14:16:18.748Z,1.60
2022-08-10T14:18:50.854Z,1.53
2022-08-10T14:21:19.476Z,1.60
2022-08-10T14:23:51.999Z,1.60
2022-08-10T14:26:24.518Z,1.50
2022-08-10T14:28:57.490Z,1.93
2022-08-10T14:31:33.829Z,2.00
2022-08-10T14:34:04.937Z,1.70
2022-08-10T14:36:43.461Z,1.70
2022-08-10T14:39:20.864Z,1.80
2022-08-10T14:42:01.223Z,2.00
2022-08-10T14:44:48.791Z,1.60
2022-08-10T14:47:53.745Z,2.10
2022-08-10T14:50:09.983Z,1.67
2022-08-10T14:52:44.106Z,1.87
2022-08-10T14:55:19.819Z,1.70
2022-08-10T14:58:19.767Z,1.90
2022-08-10T15:00:43.219Z,2.00
2022-08-10T15:03:58.974Z,1.90
2022-08-10T15:06:17.914Z,2.20
2022-08-10T15:08:47.492Z,1.90
2022-08-10T15:12:13.572Z,1.80
2022-08-10T15:14:29.309Z,2.20
2022-08-10T15:17:00.552Z,2.00
2022-08-10T15:20:02.124Z,2.00
2022-08-10T15:22:36.984Z,2.10
2022-08-10T15:25:19.391Z,2.27
2022-08-10T15:27:56.868Z,2.13
2022-08-10T15:30:31.205Z,2.13
2022-08-10T15:34:03.651Z,2.10
2022-08-10T15:36:33.026Z,2.00
2022-08-10T15:39:04.146Z,2.47
2022-08-10T15:41:57.378Z,2.23
2022-08-10T15:44:38.596Z,2.30
2022-08-10T15:47:15.271Z,2.33
2022-08-10T15:49:53.526Z,2.40
2022-08-10T15:52:39.858Z,2.60
2022-08-10T15:55:43.102Z,2.40
2022-08-10T15:58:10.454Z,2.50
2022-08-10T16:00:45.466Z,2.70
2022-08-10T16:03:23.350Z,2.37
2022-08-10T16:06:01.658Z,2.50
2022-08-10T16:08:55.967Z,2.60
2022-08-10T16:11:38.161Z,2.43
2022-08-10T16:14:16.714Z,2.47
2022-08-10T16:16:50.978Z,2.70
2022-08-10T16:19:24.960Z,2.70
2022-08-10T16:22:02.431Z,2.33
2022-08-10T16:24:52.101Z,2.77
2022-08-10T16:27:22.539Z,2.50
2022-08-10T16:29:57.030Z,2.80
2022-08-10T16:32:26.657Z,2.80
2022-08-10T16:34:56.639Z,2.23
2022-08-10T16:37:56.397Z,3.00
2022-08-10T16:40:24.170Z,2.60
2022-08-10T16:42:54.095Z,2.60
2022-08-10T16:45:30.605Z,2.80
2022-08-10T16:48:00.118Z,2.40
2022-08-10T16:50:30.832Z,2.67
2022-08-10T16:53:03.345Z,2.90
2022-08-10T16:55:47.987Z,2.60
2022-08-10T16:58:22.046Z,2.33
2022-08-10T17:00:51.854Z,2.63
2022-08-10T17:04:05.762Z,2.53
2022-08-10T17:06:22.477Z,2.27
2022-08-10T17:08:55.708Z,2.70
2022-08-10T17:11:31.830Z,2.57
2022-08-10T17:14:02.389Z,2.37
2022-08-10T17:16:35.780Z,2.40
2022-08-10T17:19:08.455Z,2.33
2022-08-10T17:21:50.931Z,2.50
2022-08-10T17:24:28.330Z,2.53
2022-08-10T17:27:01.509Z,2.30
2022-08-10T17:29:58.252Z,2.13
2022-08-10T17:32:44.478Z,2.03
2022-08-10T17:35:19.755Z,2.27
2022-08-10T17:37:57.971Z,2.53
2022-08-10T17:40:30.128Z,1.97
2022-08-10T17:42:59.524Z,1.63
2022-08-10T17:45:48.720Z,2.07
2022-08-10T17:48:19.807Z,2.00
2022-08-10T17:50:52.382Z,2.30
2022-08-10T17:53:26.225Z,2.30
2022-08-10T17:55:59.233Z,1.97
2022-08-10T17:58:31.258Z,2.33
2022-08-10T18:01:40.478Z,2.23
2022-08-10T18:03:54.102Z,2.10
2022-08-10T18:06:24.069Z,2.10
2022-08-10T18:08:58.142Z,1.97
2022-08-10T18:11:32.498Z,2.50
2022-08-10T18:14:07.201Z,2.30
2022-08-10T18:16:41.688Z,2.20
2022-08-10T18:19:15.812Z,2.20
2022-08-10T18:21:48.418Z,2.43
2022-08-10T18:24:20.082Z,2.27
2022-08-10T18:26:52.650Z,2.40
2022-08-10T18:29:24.819Z,2.30
2022-08-10T18:31:58.847Z,2.13
2022-08-10T18:34:29.341Z,2.07
2022-08-10T18:36:58.749Z,2.27
2022-08-10T18:39:33.395Z,2.10
2022-08-10T18:42:10.582Z,2.03
2022-08-10T18:44:44.457Z,2.20
2022-08-10T18:47:17.522Z,2.03
2022-08-10T18:49:59.095Z,2.10
2022-08-10T18:52:34.444Z,2.20
2022-08-10T18:55:35.149Z,2.10
2022-08-10T18:58:39.684Z,2.20
2022-08-10T19:01:19.275Z,2.00
2022-08-10T19:04:18.229Z,1.90
2022-08-10T19:07:06.124Z,2.17
2022-08-10T19:09:47.013Z,2.27
2022-08-10T19:12:33.446Z,2.03
2022-08-10T19:15:14.806Z,1.80
2022-08-10T19:18:03.740Z,2.13
2022-08-10T19:20:42.506Z,2.13
2022-08-10T19:23:34.807Z,1.90
2022-08-10T19:26:44.036Z,2.10
2022-08-10T19:30:08.755Z,2.03
2022-08-10T19:32:24.985Z,1.90
2022-08-10T19:35:02.324Z,2.10
2022-08-10T19:37:38.661Z,2.10
2022-08-10T19:40:44.775Z,2.20
2022-08-10T19:43:20.821Z,2.20
2022-08-10T19:46:15.300Z,2.27
2022-08-10T19:48:53.674Z,2.40
2022-08-10T19:54:21.891Z,2.40
2022-08-10T19:57:02.015Z,2.27
2022-08-10T20:00:16.561Z,2.30
2022-08-10T20:02:30.639Z,2.27
2022-08-10T20:05:09.371Z,2.03
2022-08-10T20:07:44.538Z,2.23
2022-08-10T20:10:19.077Z,2.20
2022-08-10T20:12:59.488Z,2.07
2022-08-10T20:15:41.984Z,1.83
2022-08-10T20:18:17.830Z,2.20
2022-08-10T20:20:51.077Z,2.10
2022-08-10T20:23:24.140Z,1.77
2022-08-10T20:25:57.915Z,1.90
2022-08-10T20:28:35.252Z,2.10
2022-08-10T20:31:12.593Z,1.83
2022-08-10T20:33:58.614Z,2.13
2022-08-10T20:36:34.409Z,2.00
2022-08-10T20:39:13.505Z,1.90
2022-08-10T20:42:01.028Z,2.07
2022-08-10T20:44:44.382Z,1.70
2022-08-10T20:47:23.165Z,1.80
2022-08-10T20:50:02.812Z,1.90
2022-08-10T20:52:35.067Z,2.00
2022-08-10T20:55:08.680Z,2.07
2022-08-10T20:58:13.177Z,2.00
2022-08-10T21:00:53.730Z,2.00
2022-08-10T21:03:45.180Z,2.03
2022-08-10T21:06:42.085Z,2.00
2022-08-10T21:09:24.933Z,2.27
2022-08-10T21:12:07.423Z,2.30
2022-08-10T21:14:47.864Z,2.13
2022-08-10T21:17:50.867Z,2.10
2022-08-10T21:20:47.441Z,2.03
2022-08-10T21:23:30.301Z,1.70
2022-08-10T21:26:10.016Z,1.90
2022-08-10T21:29:03.304Z,2.03
2022-08-10T21:31:45.970Z,1.80
2022-08-10T21:34:32.256Z,2.03
2022-08-10T21:37:07.854Z,1.80
2022-08-10T21:39:48.077Z,1.83
2022-08-10T21:42:47.211Z,2.00
2022-08-10T21:45:59.276Z,1.90
2022-08-10T21:48:57.803Z,2.10
2022-08-10T21:54:57.955Z,2.03
2022-08-10T21:57:55.322Z,1.73
2022-08-10T22:00:49.510Z,2.10
2022-08-10T22:03:40.059Z,2.07
2022-08-10T22:06:28.428Z,1.87
2022-08-10T22:09:20.818Z,1.80
2022-08-10T22:12:24.965Z,2.03
2022-08-10T22:16:03.940Z,2.20
2022-08-10T22:18:36.069Z,2.10
2022-08-10T22:21:45.291Z,2.10
2022-08-10T22:24:41.466Z,2.20
2022-08-10T22:27:46.139Z,2.00
2022-08-10T22:30:36.958Z,2.00
2022-08-10T22:33:42.507Z,1.90
2022-08-10T22:36:57.005Z,1.90
2022-08-10T22:40:11.867Z,1.90
2022-08-10T22:43:10.316Z,2.10
2022-08-10T22:46:05.917Z,2.20
2022-08-10T22:48:59.595Z,1.97
2022-08-10T22:51:36.347Z,2.20
2022-08-10T22:54:32.448Z,2.00
2022-08-10T22:57:20.114Z,2.37
2022-08-10T22:59:49.489Z,2.23
2022-08-10T23:02:30.853Z,2.47
2022-08-10T23:05:06.559Z,2.40
2022-08-10T23:07:38.297Z,2.10
2022-08-10T23:10:09.467Z,2.27
2022-08-10T23:12:43.035Z,2.10
2022-08-10T23:15:38.612Z,1.87
2022-08-10T23:18:29.347Z,2.37
2022-08-10T23:20:59.392Z,1.87
2022-08-10T23:23:30.396Z,1.80
2022-08-10T23:26:01.952Z,2.03
2022-08-10T23:28:55.399Z,2.07
2022-08-10T23:32:00.712Z,1.90
2022-08-10T23:34:21.023Z,1.80
2022-08-10T23:36:53.048Z,1.90
2022-08-10T23:39:28.342Z,1.97
2022-08-10T23:42:06.354Z,1.80
2022-08-10T23:44:39.254Z,2.20
2022-08-10T23:47:09.003Z,1.90
2022-08-10T23:49:39.388Z,2.20
2022-08-10T23:52:15.044Z,2.30
2022-08-10T23:54:47.358Z,2.00
2022-08-10T23:57:23.017Z,2.37
2022-08-10T23:59:55.142Z,2.27
